^^
Saratoga-Weather Station Historical Data
Daily Summary for May 29, 2021 Units:  Both    English   Metric
Daily Weekly Monthly Yearly Custom
  High: Low: Average:
Temperature: 50.7 °F /  10.4 °C 49.8 °F /  9.9 °C 50.2 °F /  10.1 °C
Dew Point: 49.6 °F /  9.8 °C 48.4 °F /  9.1 °C 48.7 °F /  9.3 °C
Humidity: 96% 95% 95%
Wind Speed: 6mph /  9.7km/h - 1.6mph /  2.5km/h
Wind Gust: 8mph /  12.9km/h - -
Wind- - WNW
Pressure: 29.6 in /  1003.4 hPa 29.6 in /  1001.4 hPa -
Precipitation: 0.06 in /  1.5 mm    
Historical Graphs
 
 
Tabular Data for May 29, 2021
Time Temperature Dew Point Pressure Wind Wind Speed Wind Gust Humidity Rainfall Rate (Hourly) solar
00:03 49.8 °F /  9.9 °C 48.4 °F /  9.1 °C 29.6in /  1003.4hPa NNW 2mph /  3.2km/h 4mph /  6.4km/h 95% 0.05in /  1.3mm 0 W/m2
00:08 49.8 °F /  9.9 °C 48.4 °F /  9.1 °C 29.6in /  1003.4hPa West 2.9mph /  4.7km/h 8mph /  12.9km/h 95% 0.05in /  1.3mm 0 W/m2
00:13 49.8 °F /  9.9 °C 48.4 °F /  9.1 °C 29.6in /  1003.4hPa North 2mph /  3.2km/h 2mph /  3.2km/h 95% 0.04in /  1.0mm 0 W/m2
00:18 49.8 °F /  9.9 °C 48.4 °F /  9.1 °C 29.6in /  1003.4hPa Calm   7mph /  11.3km/h 95% 0.03in /  0.8mm 0 W/m2
00:23 49.8 °F /  9.9 °C 48.4 °F /  9.1 °C 29.6in /  1003.0hPa West 2mph /  3.2km/h 2mph /  3.2km/h 95% 0.03in /  0.8mm 0 W/m2
00:28 49.8 °F /  9.9 °C 48.4 °F /  9.1 °C 29.6in /  1003.0hPa Calm   2mph /  3.2km/h 95% 0.02in /  0.5mm 0 W/m2
00:33 50 °F /  10 °C 48.6 °F /  9.2 °C 29.6in /  1003.0hPa Calm   4mph /  6.4km/h 95% 0.02in /  0.5mm 0 W/m2
00:38 50 °F /  10 °C 48.6 °F /  9.2 °C 29.6in /  1003.0hPa NW 0.9mph /  1.4km/h 4mph /  6.4km/h 95% 0.02in /  0.5mm 0 W/m2
00:43 50 °F /  10 °C 48.6 °F /  9.2 °C 29.6in /  1003.0hPa Calm   3mph /  4.8km/h 95% 0.02in /  0.5mm 0 W/m2
00:48 50 °F /  10 °C 48.6 °F /  9.2 °C 29.6in /  1002.7hPa NNW 2mph /  3.2km/h 4mph /  6.4km/h 95% 0.02in /  0.5mm 0 W/m2
00:53 50 °F /  10 °C 48.6 °F /  9.2 °C 29.6in /  1002.7hPa Calm     95% 0.02in /  0.5mm 0 W/m2
00:58 50.2 °F /  10.1 °C 48.7 °F /  9.3 °C 29.6in /  1002.4hPa North 0.9mph /  1.4km/h 4mph /  6.4km/h 95% 0.01in /  0.2mm 0 W/m2
01:03 50.2 °F /  10.1 °C 48.7 °F /  9.3 °C 29.6in /  1002.4hPa West 2mph /  3.2km/h 2mph /  3.2km/h 95% 0.02in /  0.5mm 0 W/m2
01:08 50.2 °F /  10.1 °C 48.7 °F /  9.3 °C 29.6in /  1002.0hPa WNW 2.9mph /  4.7km/h 3mph /  4.8km/h 95% 0.03in /  0.8mm 0 W/m2
01:13 50.2 °F /  10.1 °C 49.1 °F /  9.5 °C 29.6in /  1002.0hPa North 0.9mph /  1.4km/h 2mph /  3.2km/h 96% 0.05in /  1.3mm 0 W/m2
01:18 50.2 °F /  10.1 °C 49.1 °F /  9.5 °C 29.6in /  1002.0hPa NW 0.9mph /  1.4km/h 3mph /  4.8km/h 96% 0.05in /  1.3mm 0 W/m2
01:23 50.4 °F /  10.2 °C 49.3 °F /  9.6 °C 29.6in /  1001.7hPa WSW 2.9mph /  4.7km/h 6mph /  9.7km/h 96% 0.06in /  1.5mm 0 W/m2
01:28 50.4 °F /  10.2 °C 49.3 °F /  9.6 °C 29.6in /  1001.7hPa WNW 6mph /  9.7km/h 7mph /  11.3km/h 96% 0.06in /  1.5mm 0 W/m2
01:33 50.5 °F /  10.3 °C 49.5 °F /  9.7 °C 29.6in /  1001.7hPa NNW 0.9mph /  1.4km/h 2mph /  3.2km/h 96% 0.06in /  1.5mm 0 W/m2
01:38 50.5 °F /  10.3 °C 49.5 °F /  9.7 °C 29.6in /  1001.4hPa WNW 2mph /  3.2km/h 8mph /  12.9km/h 96% 0.06in /  1.5mm 0 W/m2
01:43 50.7 °F /  10.4 °C 49.6 °F /  9.8 °C 29.6in /  1001.4hPa SW 2mph /  3.2km/h 4mph /  6.4km/h 96% 0.06in /  1.5mm 0 W/m2
Juneau County Weather
Compliments of Weather Underground - 2 mb